createdAt,value
2018-05-17T00:00:17.936Z,95218
2018-05-17T00:02:49.323Z,95219
2018-05-17T00:05:20.588Z,95214
2018-05-17T00:07:51.868Z,95219
2018-05-17T00:10:23.353Z,95219
2018-05-17T00:12:54.840Z,95215
2018-05-17T00:15:26.263Z,95210
2018-05-17T00:18:03.487Z,95212
2018-05-17T00:20:35.133Z,95212
2018-05-17T00:23:07.178Z,95213
2018-05-17T00:25:39.576Z,95221
2018-05-17T00:31:14.480Z,95215
2018-05-17T00:33:45.950Z,95220
2018-05-17T00:36:17.408Z,95222
2018-05-17T00:38:48.754Z,95223
2018-05-17T00:41:20.105Z,95220
2018-05-17T00:43:51.727Z,95221
2018-05-17T00:46:23.395Z,95221
2018-05-17T00:48:54.776Z,95218
2018-05-17T00:51:26.111Z,95219
2018-05-17T00:53:57.576Z,95215
2018-05-17T00:56:28.787Z,95215
2018-05-17T00:59:00.593Z,95211
2018-05-17T01:01:31.899Z,95212
2018-05-17T01:04:03.255Z,95209
2018-05-17T01:06:34.629Z,95207
2018-05-17T01:09:06.568Z,95201
2018-05-17T01:11:38.008Z,95205
2018-05-17T01:14:09.494Z,95193
2018-05-17T01:16:41.114Z,95195
2018-05-17T01:19:13.114Z,95192
2018-05-17T01:21:44.444Z,95190
2018-05-17T01:24:16.298Z,95193
2018-05-17T01:26:47.646Z,95190
2018-05-17T01:29:19.295Z,95193
2018-05-17T01:31:50.531Z,95196
2018-05-17T01:34:22.087Z,95198
2018-05-17T01:37:01.869Z,95193
2018-05-17T01:39:45.097Z,95204
2018-05-17T01:42:16.412Z,95205
2018-05-17T01:44:47.674Z,95211
2018-05-17T01:47:19.112Z,95208
2018-05-17T01:49:50.595Z,95202
2018-05-17T01:52:21.905Z,95202
2018-05-17T01:54:53.501Z,95203
2018-05-17T01:57:24.908Z,95199
2018-05-17T01:59:56.613Z,95207
2018-05-17T02:02:28.306Z,95205
2018-05-17T02:04:59.679Z,95206
2018-05-17T02:07:31.044Z,95205
2018-05-17T02:10:02.478Z,95202
2018-05-17T02:12:33.941Z,95198
2018-05-17T02:15:05.615Z,95199
2018-05-17T02:17:37.027Z,95194
2018-05-17T02:20:08.287Z,95191
2018-05-17T02:22:39.635Z,95187
2018-05-17T02:25:11.007Z,95185
2018-05-17T02:27:42.439Z,95191
2018-05-17T02:30:14.191Z,95196
2018-05-17T02:35:41.771Z,95196
2018-05-17T02:38:14.391Z,95193
2018-05-17T02:41:03.539Z,95188
2018-05-17T02:43:34.863Z,95192
2018-05-17T02:46:06.337Z,95194
2018-05-17T02:48:37.658Z,95195
2018-05-17T02:51:09.300Z,95190
2018-05-17T02:53:40.652Z,95192
2018-05-17T02:56:12.439Z,95193
2018-05-17T02:58:43.764Z,95192
2018-05-17T03:01:15.519Z,95197
2018-05-17T03:03:46.870Z,95196
2018-05-17T03:06:18.232Z,95194
2018-05-17T03:08:55.641Z,95195
2018-05-17T03:11:27.068Z,95200
2018-05-17T03:13:58.071Z,95202
2018-05-17T03:16:29.471Z,95207
2018-05-17T03:19:00.795Z,95202
2018-05-17T03:21:49.792Z,95206
2018-05-17T03:24:21.955Z,95209
2018-05-17T03:26:53.308Z,95209
2018-05-17T03:29:24.740Z,95211
2018-05-17T03:31:56.083Z,95213
2018-05-17T03:34:27.542Z,95211
2018-05-17T03:36:58.598Z,95219
2018-05-17T03:39:29.908Z,95215
2018-05-17T03:42:05.672Z,95216
2018-05-17T03:44:37.047Z,95216
2018-05-17T03:47:08.388Z,95216
2018-05-17T03:49:45.238Z,95212
2018-05-17T03:52:16.663Z,95211
2018-05-17T03:54:48.147Z,95218
2018-05-17T03:57:19.728Z,95215
2018-05-17T03:59:51.336Z,95217
2018-05-17T04:02:34.921Z,95217
2018-05-17T04:05:17.960Z,95222
2018-05-17T04:07:57.614Z,95223
2018-05-17T04:10:29.960Z,95225
2018-05-17T04:13:01.745Z,95228
2018-05-17T04:15:34.843Z,95232
2018-05-17T04:18:06.679Z,95229
2018-05-17T04:20:40.540Z,95230
2018-05-17T04:23:13.024Z,95225
2018-05-17T04:25:44.463Z,95234
2018-05-17T04:28:15.727Z,95233
2018-05-17T04:30:47.193Z,95235
2018-05-17T04:33:18.833Z,95233
2018-05-17T04:35:50.272Z,95236
2018-05-17T04:38:21.738Z,95232
2018-05-17T04:40:53.176Z,95236
2018-05-17T04:43:25.043Z,95237
2018-05-17T04:45:56.388Z,95235
2018-05-17T04:48:28.006Z,95237
2018-05-17T04:50:58.984Z,95241
2018-05-17T04:53:41.925Z,95241
2018-05-17T04:56:13.318Z,95238
2018-05-17T04:58:45.025Z,95238
2018-05-17T05:01:16.522Z,95245
2018-05-17T05:03:48.240Z,95239
2018-05-17T05:06:19.966Z,95242
2018-05-17T05:08:52.005Z,95249
2018-05-17T05:11:23.603Z,95249
2018-05-17T05:13:55.169Z,95250
2018-05-17T05:16:26.593Z,95247
2018-05-17T05:18:58.146Z,95254
2018-05-17T05:21:29.606Z,95256
2018-05-17T05:24:00.958Z,95253
2018-05-17T05:26:31.980Z,95253
2018-05-17T05:29:03.051Z,95260
2018-05-17T05:31:34.187Z,95263
2018-05-17T05:34:05.959Z,95264
2018-05-17T05:36:37.000Z,95265
2018-05-17T05:39:08.200Z,95268
2018-05-17T05:41:39.478Z,95270
2018-05-17T05:44:11.230Z,95273
2018-05-17T05:46:42.563Z,95275
2018-05-17T05:49:28.552Z,95270
2018-05-17T05:51:59.810Z,95277
2018-05-17T05:54:32.360Z,95274
2018-05-17T05:57:12.322Z,95276
2018-05-17T05:59:43.791Z,95284
2018-05-17T06:02:14.819Z,95284
2018-05-17T06:04:46.520Z,95284
2018-05-17T06:07:17.840Z,95287
2018-05-17T06:09:49.087Z,95281
2018-05-17T06:12:20.535Z,95289
2018-05-17T06:14:51.895Z,95290
2018-05-17T06:17:23.402Z,95297
2018-05-17T06:19:57.057Z,95300
2018-05-17T06:22:28.497Z,95306
2018-05-17T06:25:02.220Z,95308
2018-05-17T06:27:34.241Z,95309
2018-05-17T06:30:05.744Z,95310
2018-05-17T06:32:37.459Z,95319
2018-05-17T06:35:10.129Z,95320
2018-05-17T06:37:49.433Z,95318
2018-05-17T06:40:20.727Z,95320
2018-05-17T06:42:52.165Z,95314
2018-05-17T06:45:23.823Z,95319
2018-05-17T06:47:55.292Z,95320
2018-05-17T06:50:28.574Z,95319
2018-05-17T06:53:00.017Z,95324
2018-05-17T06:55:32.343Z,95328
2018-05-17T06:58:05.018Z,95324
2018-05-17T07:03:32.684Z,95327
2018-05-17T07:06:04.419Z,95329
2018-05-17T07:08:44.697Z,95334
2018-05-17T07:11:15.939Z,95332
2018-05-17T07:13:47.354Z,95331
2018-05-17T07:16:18.620Z,95335
2018-05-17T07:18:49.956Z,95340
2018-05-17T07:21:24.925Z,95339
2018-05-17T07:23:56.270Z,95345
2018-05-17T07:26:27.874Z,95344
2018-05-17T07:28:58.932Z,95350
2018-05-17T07:31:30.309Z,95347
2018-05-17T07:34:04.111Z,95350
2018-05-17T07:36:35.738Z,95354
2018-05-17T07:39:08.032Z,95355
2018-05-17T07:41:41.739Z,95355
2018-05-17T07:44:13.175Z,95358
2018-05-17T07:46:44.449Z,95350
2018-05-17T07:49:15.858Z,95356
2018-05-17T07:51:51.755Z,95356
2018-05-17T07:54:23.063Z,95355
2018-05-17T07:56:54.874Z,95362
2018-05-17T07:59:26.277Z,95361
2018-05-17T08:02:03.986Z,95366
2018-05-17T08:04:35.327Z,95366
2018-05-17T08:07:07.049Z,95368
2018-05-17T08:09:38.534Z,95372
2018-05-17T08:12:09.915Z,95376
2018-05-17T08:14:41.283Z,95378
2018-05-17T08:17:12.584Z,95382
2018-05-17T08:19:43.588Z,95382
2018-05-17T08:22:14.980Z,95385
2018-05-17T08:24:45.978Z,95383
2018-05-17T08:27:17.004Z,95389
2018-05-17T08:29:48.299Z,95390
2018-05-17T08:32:23.570Z,95395
2018-05-17T08:34:54.625Z,95391
2018-05-17T08:37:25.931Z,95394
2018-05-17T08:39:56.951Z,95398
2018-05-17T08:42:28.661Z,95397
2018-05-17T08:45:00.004Z,95397
2018-05-17T08:47:31.795Z,95402
2018-05-17T08:50:04.148Z,95401
2018-05-17T08:52:36.401Z,95403
2018-05-17T08:55:11.515Z,95401
2018-05-17T08:57:43.019Z,95402
2018-05-17T09:00:14.420Z,95409
2018-05-17T09:02:46.039Z,95407
2018-05-17T09:05:19.780Z,95408
2018-05-17T09:07:51.635Z,95416
2018-05-17T09:10:25.988Z,95408
2018-05-17T09:12:57.001Z,95410
2018-05-17T09:15:28.375Z,95408
2018-05-17T09:18:07.213Z,95412
2018-05-17T09:20:38.932Z,95416
2018-05-17T09:23:10.790Z,95418
2018-05-17T09:25:42.147Z,95422
2018-05-17T09:28:13.500Z,95424
2018-05-17T09:30:44.835Z,95425
2018-05-17T09:33:16.471Z,95429
2018-05-17T09:35:47.536Z,95431
2018-05-17T09:38:19.653Z,95438
2018-05-17T09:40:51.044Z,95441
2018-05-17T09:43:22.423Z,95441
2018-05-17T09:45:53.740Z,95450
2018-05-17T09:48:24.779Z,95447
2018-05-17T09:50:56.158Z,95455
2018-05-17T09:53:27.795Z,95452
2018-05-17T09:55:59.152Z,95455
2018-05-17T09:58:33.967Z,95448
2018-05-17T10:01:05.451Z,95451
2018-05-17T10:03:36.575Z,95455
2018-05-17T10:06:07.630Z,95452
2018-05-17T10:08:38.926Z,95446
2018-05-17T10:11:09.970Z,95447
2018-05-17T10:13:41.079Z,95444
2018-05-17T10:16:12.523Z,95442
2018-05-17T10:18:43.584Z,95446
2018-05-17T10:21:14.806Z,95446
2018-05-17T10:23:46.397Z,95446
2018-05-17T10:26:17.980Z,95456
2018-05-17T10:28:49.460Z,95457
2018-05-17T10:31:20.913Z,95456
2018-05-17T10:33:53.589Z,95455
2018-05-17T10:36:25.179Z,95453
2018-05-17T10:38:56.897Z,95452
2018-05-17T10:41:28.276Z,95453
2018-05-17T10:43:59.612Z,95455
2018-05-17T10:46:31.018Z,95457
2018-05-17T10:49:02.558Z,95455
2018-05-17T10:51:34.091Z,95458
2018-05-17T10:54:05.760Z,95459
2018-05-17T10:56:37.762Z,95451
2018-05-17T10:59:09.947Z,95454
2018-05-17T11:01:41.277Z,95452
2018-05-17T11:04:12.474Z,95459
2018-05-17T11:06:43.827Z,95453
2018-05-17T11:09:15.148Z,95451
2018-05-17T11:11:46.574Z,95447
2018-05-17T11:14:17.908Z,95449
2018-05-17T11:16:49.346Z,95455
2018-05-17T11:19:20.846Z,95457
2018-05-17T11:21:52.159Z,95457
2018-05-17T11:24:23.672Z,95457
2018-05-17T11:26:55.055Z,95460
2018-05-17T11:29:26.083Z,95461
2018-05-17T11:31:57.482Z,95451
2018-05-17T11:34:30.338Z,95455
2018-05-17T11:37:01.419Z,95456
2018-05-17T11:39:33.131Z,95450
2018-05-17T11:42:04.591Z,95457
2018-05-17T11:44:36.016Z,95460
2018-05-17T11:47:07.052Z,95464
2018-05-17T11:49:38.279Z,95467
2018-05-17T11:52:14.707Z,95471
2018-05-17T11:54:46.754Z,95474
2018-05-17T11:57:18.302Z,95472
2018-05-17T11:59:49.960Z,95477
2018-05-17T12:02:21.299Z,95470
2018-05-17T12:04:52.787Z,95470
2018-05-17T12:07:28.027Z,95471
2018-05-17T12:09:59.247Z,95470
2018-05-17T12:12:30.699Z,95475
2018-05-17T12:15:02.290Z,95469
2018-05-17T12:17:34.982Z,95474
2018-05-17T12:20:06.918Z,95470
2018-05-17T12:22:43.119Z,95468
2018-05-17T12:25:14.414Z,95469
2018-05-17T12:27:45.655Z,95465
2018-05-17T12:30:17.715Z,95468
2018-05-17T12:32:49.071Z,95464
2018-05-17T12:35:20.824Z,95467
2018-05-17T12:37:54.953Z,95468
2018-05-17T12:40:26.887Z,95471
2018-05-17T12:42:58.023Z,95475
2018-05-17T12:45:29.340Z,95461
2018-05-17T12:48:00.334Z,95460
2018-05-17T12:50:31.807Z,95460
2018-05-17T12:53:03.720Z,95462
2018-05-17T12:55:35.140Z,95460
2018-05-17T12:58:06.396Z,95455
2018-05-17T13:00:39.344Z,95461
2018-05-17T13:03:11.747Z,95460
2018-05-17T13:05:43.306Z,95461
2018-05-17T13:08:14.904Z,95463
2018-05-17T13:10:46.675Z,95456
2018-05-17T13:13:18.007Z,95453
2018-05-17T13:15:49.485Z,95451
2018-05-17T13:18:20.942Z,95450
2018-05-17T13:20:52.470Z,95441
2018-05-17T13:23:24.214Z,95438
2018-05-17T13:25:55.271Z,95443
2018-05-17T13:28:26.291Z,95436
2018-05-17T13:30:57.795Z,95434
2018-05-17T13:33:28.786Z,95435
2018-05-17T13:35:59.805Z,95430
2018-05-17T13:38:30.838Z,95436
2018-05-17T13:41:02.163Z,95436
2018-05-17T13:43:33.180Z,95433
2018-05-17T13:46:04.550Z,95427
2018-05-17T13:48:35.861Z,95433
2018-05-17T13:51:07.328Z,95432
2018-05-17T13:53:38.653Z,95435
2018-05-17T13:56:12.103Z,95438
2018-05-17T13:58:44.328Z,95435
2018-05-17T14:01:15.956Z,95430
2018-05-17T14:03:47.220Z,95435
2018-05-17T14:06:18.686Z,95438
2018-05-17T14:08:50.026Z,95429
2018-05-17T14:11:21.772Z,95429
2018-05-17T14:14:06.582Z,95426
2018-05-17T14:16:38.829Z,95424
2018-05-17T14:19:10.275Z,95431
2018-05-17T14:21:43.066Z,95431
2018-05-17T14:24:14.412Z,95434
2018-05-17T14:26:45.793Z,95434
2018-05-17T14:29:18.461Z,95438
2018-05-17T14:31:50.362Z,95432
2018-05-17T14:34:21.839Z,95435
2018-05-17T14:36:53.210Z,95434
2018-05-17T14:39:24.650Z,95440
2018-05-17T14:42:01.340Z,95430
2018-05-17T14:44:32.891Z,95436
2018-05-17T14:47:04.331Z,95436
2018-05-17T14:52:37.047Z,95437
2018-05-17T14:55:08.635Z,95441
2018-05-17T14:57:46.284Z,95439
2018-05-17T15:00:17.627Z,95443
2018-05-17T15:02:48.959Z,95442
2018-05-17T15:05:26.697Z,95440
2018-05-17T15:07:58.363Z,95446
2018-05-17T15:10:29.675Z,95443
2018-05-17T15:13:03.551Z,95441
2018-05-17T15:15:36.235Z,95439
2018-05-17T15:18:08.153Z,95441
2018-05-17T15:20:40.503Z,95448
2018-05-17T15:23:12.742Z,95446
2018-05-17T15:25:44.219Z,95443
2018-05-17T15:28:22.256Z,95439
2018-05-17T15:30:56.045Z,95446
2018-05-17T15:33:30.517Z,95443
2018-05-17T15:36:03.929Z,95446
2018-05-17T15:38:38.036Z,95450
2018-05-17T15:41:10.713Z,95440
2018-05-17T15:43:42.603Z,95450
2018-05-17T15:46:14.057Z,95454
2018-05-17T15:48:45.523Z,95449
2018-05-17T15:51:16.880Z,95450
2018-05-17T15:53:57.854Z,95452
2018-05-17T15:56:29.304Z,95456
2018-05-17T15:59:01.385Z,95456
2018-05-17T16:01:32.800Z,95454
2018-05-17T16:04:04.426Z,95457
2018-05-17T16:06:35.500Z,95461
2018-05-17T16:09:07.348Z,95461
2018-05-17T16:11:38.420Z,95465
2018-05-17T16:14:09.842Z,95467
2018-05-17T16:16:41.305Z,95473
2018-05-17T16:19:12.671Z,95474
2018-05-17T16:21:44.218Z,95475
2018-05-17T16:24:15.585Z,95471
2018-05-17T16:26:46.900Z,95462
2018-05-17T16:29:18.781Z,95463
2018-05-17T16:31:50.204Z,95466
2018-05-17T16:34:24.036Z,95467
2018-05-17T16:36:55.662Z,95461
2018-05-17T16:39:27.940Z,95472
2018-05-17T16:41:59.479Z,95475
2018-05-17T16:44:31.863Z,95472
2018-05-17T16:47:03.321Z,95476
2018-05-17T16:49:34.355Z,95483
2018-05-17T16:52:05.977Z,95483
2018-05-17T16:54:42.752Z,95492
2018-05-17T16:57:14.131Z,95498
2018-05-17T16:59:45.518Z,95492
2018-05-17T17:02:16.855Z,95495
2018-05-17T17:04:48.621Z,95495
2018-05-17T17:07:20.350Z,95496
2018-05-17T17:09:52.179Z,95502
2018-05-17T17:12:23.559Z,95505
2018-05-17T17:15:08.246Z,95503
2018-05-17T17:17:39.571Z,95504
2018-05-17T17:20:10.919Z,95502
2018-05-17T17:22:41.982Z,95501
2018-05-17T17:25:13.416Z,95509
2018-05-17T17:27:44.760Z,95506
2018-05-17T17:30:18.406Z,95507
2018-05-17T17:32:49.815Z,95507
2018-05-17T17:35:33.711Z,95504
2018-05-17T17:38:07.621Z,95506
2018-05-17T17:40:46.109Z,95519
2018-05-17T17:43:18.899Z,95520
2018-05-17T17:45:51.052Z,95516
2018-05-17T17:48:22.475Z,95524
2018-05-17T17:50:54.131Z,95528
2018-05-17T17:53:25.576Z,95529
2018-05-17T17:55:57.059Z,95530
2018-05-17T17:58:33.296Z,95540
2018-05-17T18:01:04.911Z,95534
2018-05-17T18:03:36.295Z,95533
2018-05-17T18:06:08.197Z,95537
2018-05-17T18:08:39.610Z,95534
2018-05-17T18:11:19.276Z,95538
2018-05-17T18:13:50.707Z,95535
2018-05-17T18:16:22.423Z,95532
2018-05-17T18:18:53.923Z,95542
2018-05-17T18:21:25.207Z,95543
2018-05-17T18:24:10.818Z,95548
2018-05-17T18:26:41.909Z,95553
2018-05-17T18:29:13.124Z,95558
2018-05-17T18:31:45.126Z,95555
2018-05-17T18:34:17.142Z,95550
2018-05-17T18:36:48.285Z,95548
2018-05-17T18:42:25.731Z,95548
2018-05-17T18:44:58.002Z,95546
2018-05-17T18:50:36.575Z,95551
2018-05-17T18:53:09.175Z,95556
2018-05-17T18:55:46.379Z,95559
2018-05-17T18:58:18.190Z,95555
2018-05-17T19:00:49.566Z,95564
2018-05-17T19:03:20.968Z,95561
2018-05-17T19:05:53.072Z,95566
2018-05-17T19:08:24.589Z,95569
2018-05-17T19:10:56.985Z,95572
2018-05-17T19:13:28.650Z,95571
2018-05-17T19:16:13.286Z,95574
2018-05-17T19:18:46.923Z,95581
2018-05-17T19:21:18.528Z,95589
2018-05-17T19:23:49.887Z,95592
2018-05-17T19:26:21.340Z,95600
2018-05-17T19:28:52.817Z,95604
2018-05-17T19:31:37.660Z,95607
2018-05-17T19:34:09.107Z,95607
2018-05-17T19:36:40.454Z,95614
2018-05-17T19:39:12.251Z,95617
2018-05-17T19:41:43.569Z,95620
2018-05-17T19:44:15.379Z,95623
2018-05-17T19:47:00.230Z,95621
2018-05-17T19:49:32.479Z,95625
2018-05-17T19:52:04.924Z,95630
2018-05-17T19:54:36.267Z,95630
2018-05-17T19:57:07.707Z,95636
2018-05-17T19:59:39.186Z,95640
2018-05-17T20:02:10.631Z,95642
2018-05-17T20:04:42.287Z,95646
2018-05-17T20:07:15.048Z,95655
2018-05-17T20:09:46.928Z,95657
2018-05-17T20:12:18.356Z,95657
2018-05-17T20:14:49.815Z,95658
2018-05-17T20:17:21.372Z,95659
2018-05-17T20:19:53.011Z,95663
2018-05-17T20:22:24.452Z,95665
2018-05-17T20:24:55.811Z,95662
2018-05-17T20:27:46.028Z,95662
2018-05-17T20:30:18.468Z,95656
2018-05-17T20:32:49.811Z,95658
2018-05-17T20:35:33.176Z,95658
2018-05-17T20:38:06.483Z,95658
2018-05-17T20:40:38.860Z,95658
2018-05-17T20:43:14.869Z,95656
2018-05-17T20:45:51.391Z,95664
2018-05-17T20:48:24.575Z,95662
2018-05-17T20:50:57.191Z,95662
2018-05-17T20:56:28.283Z,95669
2018-05-17T20:58:59.672Z,95665
2018-05-17T21:04:30.803Z,95668
2018-05-17T21:07:02.251Z,95672
2018-05-17T21:12:43.513Z,95673
2018-05-17T21:15:15.097Z,95669
2018-05-17T21:17:46.839Z,95676
2018-05-17T21:20:20.880Z,95675
2018-05-17T21:22:52.529Z,95678
2018-05-17T21:25:23.948Z,95677
2018-05-17T21:27:55.199Z,95677
2018-05-17T21:30:26.427Z,95680
2018-05-17T21:32:58.026Z,95680
2018-05-17T21:35:29.084Z,95684
2018-05-17T21:38:00.340Z,95688
2018-05-17T21:40:31.943Z,95683
2018-05-17T21:43:03.631Z,95690
2018-05-17T21:45:35.711Z,95693
2018-05-17T21:48:08.856Z,95690
2018-05-17T21:50:39.890Z,95689
2018-05-17T21:56:18.512Z,95685
2018-05-17T21:58:49.708Z,95681
2018-05-17T22:01:21.154Z,95686
2018-05-17T22:03:52.660Z,95687
2018-05-17T22:06:24.254Z,95691
2018-05-17T22:08:55.775Z,95689
2018-05-17T22:11:27.290Z,95689
2018-05-17T22:13:58.746Z,95688
2018-05-17T22:16:30.114Z,95685
2018-05-17T22:19:07.058Z,95687
2018-05-17T22:21:38.484Z,95688
2018-05-17T22:24:10.039Z,95687
2018-05-17T22:26:42.648Z,95685
2018-05-17T22:29:17.657Z,95679
2018-05-17T22:31:49.440Z,95675
2018-05-17T22:34:20.481Z,95675
2018-05-17T22:36:51.520Z,95687
2018-05-17T22:39:22.863Z,95686
2018-05-17T22:41:54.291Z,95683
2018-05-17T22:44:47.588Z,95690
2018-05-17T22:47:18.903Z,95690
2018-05-17T22:49:50.155Z,95685
2018-05-17T22:52:21.369Z,95686
2018-05-17T22:54:52.656Z,95683
2018-05-17T22:57:32.522Z,95681
2018-05-17T23:03:00.072Z,95686
2018-05-17T23:05:31.492Z,95685
2018-05-17T23:08:02.867Z,95677
2018-05-17T23:10:34.505Z,95680
2018-05-17T23:13:05.871Z,95679
2018-05-17T23:15:37.650Z,95684
2018-05-17T23:18:09.203Z,95683
2018-05-17T23:20:58.734Z,95673
2018-05-17T23:23:30.112Z,95676
2018-05-17T23:26:01.771Z,95673
2018-05-17T23:28:42.361Z,95680
2018-05-17T23:31:13.645Z,95676
2018-05-17T23:33:45.041Z,95673
2018-05-17T23:36:16.502Z,95671
2018-05-17T23:38:47.926Z,95669
2018-05-17T23:41:33.851Z,95673
2018-05-17T23:44:05.288Z,95674
2018-05-17T23:46:36.735Z,95676
2018-05-17T23:49:08.546Z,95672
2018-05-17T23:51:39.999Z,95663
2018-05-17T23:54:11.380Z,95665
2018-05-17T23:56:45.528Z,95665
2018-05-17T23:59:17.255Z,95665
